Terminal Aerodrome Forecast
Issued by NWS

Home | Current Version | Previous Version | Text Only | Print | Product List | Glossary On
Versions: 1 2 3 4 5 6 7 8 9 10 11 12 13 14 15 16 17
000
FTUS46 KMTR 222320
TAFOAK
TAF
KOAK 222320Z 2300/2406 28012KT P6SM FEW030
     FM230300 30007KT P6SM SKC
     FM231000 VRB03KT P6SM SKC
     FM231900 28006KT P6SM SKC
     FM232200 30014KT P6SM SKC
     FM240100 30014KT P6SM FEW030=

USA.gov is the U.S. government's official web portal to all federal, state and local government web resources and services.